ZL3ND Weather Reports


Display with metric or nautical units.
time (UTC)temp
F
wind
direction
speed
MPH
gust
MPH
rain 1hr
in
rain 24hr
in
rain mn
in
humidity
%
barometer
mb
20240424052425 63 338 4.0 7.0 0.00 0.00 0.00 49 1029.3
20240424051524 63 343 3.0 7.0 0.00 0.00 0.00 47 1029.5
20240424050624 64 327 3.0 6.0 0.00 0.00 0.00 48 1029.3
20240424045724 64 316 3.0 7.0 0.00 0.00 0.00 47 1029.5
20240424044825 65 338 4.0 7.0 0.00 0.00 0.00 45 1029.4
20240424043924 66 336 3.0 4.0 0.00 0.00 0.00 45 1029.6
20240424043024 66 354 4.0 6.0 0.00 0.00 0.00 43 1029.8
20240424042124 67 27 3.0 4.0 0.00 0.00 0.00 43 1029.8
20240424041224 68 347 3.0 4.0 0.00 0.00 0.00 42 1029.8
20240424040324 69 358 4.0 8.0 0.00 0.00 0.00 40 1029.9
20240424035424 70 331 3.0 8.0 0.00 0.00 0.00 38 1030.0
20240424034524 71 352 4.0 7.0 0.00 0.00 0.00 38 1030.0
20240424033624 72 335 4.0 4.0 0.00 0.00 0.00 37 1030.2
20240424032724 72 339 3.0 7.0 0.00 0.00 0.00 36 1030.2
20240424031825 71 348 5.0 7.0 0.00 0.00 0.00 37 1030.5
20240424030924 71 50 4.0 7.0 0.00 0.00 0.00 37 1030.4
20240424030024 72 28 4.0 7.0 0.00 0.00 0.00 35 1030.4
20240424025124 72 8 4.0 6.0 0.00 0.00 0.00 36 1030.4
20240424024224 72 325 5.0 8.0 0.00 0.00 0.00 37 1030.5
20240424023324 72 337 6.0 9.0 0.00 0.00 0.00 36 1030.4
20240424022424 72 333 4.0 7.0 0.00 0.00 0.00 35 1030.4
20240424021524 72 13 4.0 7.0 0.00 0.00 0.00 35 1030.8
20240424020625 72 327 5.0 9.0 0.00 0.00 0.00 35 1031.0
20240424015724 72 341 5.0 8.0 0.00 0.00 0.00 34 1031.2
20240424014824 72 351 4.0 7.0 0.00 0.00 0.00 35 1031.0
20240424013924 72 357 5.0 9.0 0.00 0.00 0.00 35 1031.4
20240424013025 72 327 5.0 7.0 0.00 0.00 0.00 36 1031.4
20240424012124 71 343 5.0 9.0 0.00 0.00 0.00 36 1031.8
20240424011224 70 336 7.0 11.0 0.00 0.00 0.00 36 1032.0
20240424010324 70 321 5.0 8.0 0.00 0.00 0.00 36 1032.2
20240424005424 71 320 4.0 6.0 0.00 0.00 0.00 35 1032.2
20240424004525 69 337 5.0 7.0 0.00 0.00 0.00 37 1032.3
20240424003624 69 315 5.0 8.0 0.00 0.00 0.00 37 1032.8
20240424002724 69 303 5.0 8.0 0.00 0.00 0.00 38 1032.6
20240424001824 71 321 4.0 8.0 0.00 0.00 0.00 37 1033.0
20240424000924 69 335 5.0 7.0 0.00 0.00 0.00 39 1032.8
20240424000024 69 326 5.0 8.0 0.00 0.00 0.00 37 1033.1
20240423235124 69 326 5.0 8.0 0.00 0.00 0.00 39 1033.3
20240423234224 68 350 5.0 8.0 0.00 0.00 0.00 39 1033.3
20240423233324 68 329 4.0 6.0 0.00 0.00 0.00 40 1033.4
20240423232424 67 354 5.0 6.0 0.00 0.00 0.00 41 1033.5
20240423231524 66 346 6.0 8.0 0.00 0.00 0.00 41 1033.5
20240423230624 66 319 5.0 8.0 0.00 0.00 0.00 41 1033.5
20240423225724 66 333 6.0 7.0 0.00 0.00 0.00 42 1033.8
20240423224824 65 333 6.0 7.0 0.00 0.00 0.00 43 1033.8
20240423223924 66 334 5.0 7.0 0.00 0.00 0.00 42 1033.9
20240423223024 64 309 7.0 11.0 0.00 0.00 0.00 43 1034.2
20240423222124 64 311 6.0 9.0 0.00 0.00 0.00 43 1034.2
20240423221224 64 320 6.0 9.0 0.00 0.00 0.00 45 1034.1
20240423220324 64 341 6.0 8.0 0.00 0.00 0.00 44 1034.2
20240423215424 63 323 6.0 11.0 0.00 0.00 0.00 45 1034.2
20240423214524 62 324 5.0 8.0 0.00 0.00 0.00 46 1034.0
20240423213624 62 307 5.0 9.0 0.00 0.00 0.00 46 1034.0
20240423212724 62 315 6.0 13.0 0.00 0.00 0.00 47 1034.3
20240423211824 61 314 8.0 13.0 0.00 0.00 0.00 47 1034.3
20240423210924 61 351 7.0 8.0 0.00 0.00 0.00 46 1034.1
20240423210024 61 323 6.0 8.0 0.00 0.00 0.00 46 1034.2
20240423205124 60 344 7.0 9.0 0.00 0.00 0.00 47 1034.0
20240423204224 59 318 7.0 9.0 0.00 0.00 0.00 48 1034.0
20240423203324 58 317 4.0 7.0 0.00 0.00 0.00 49 1034.1
20240423202424 57 2 3.0 6.0 0.00 0.00 0.00 49 1033.9
20240423201524 57 2 6.0 11.0 0.00 0.00 0.00 49 1033.9
20240423200624 56 9 6.0 9.0 0.00 0.00 0.00 49 1033.8
20240423195724 56 337 5.0 7.0 0.00 0.00 0.00 51 1033.9
20240423194824 54 330 4.0 6.0 0.00 0.00 0.00 53 1033.6
20240423193924 53 333 3.0 4.0 0.00 0.00 0.00 55 1033.3
20240423193024 52 325 2.0 6.0 0.00 0.00 0.00 56 1033.6
20240423192124 50 303 1.0 2.0 0.00 0.00 0.00 63 1033.4
20240423191224 50 323 2.0 2.0 0.00 0.00 0.00 60 1033.0
20240423190324 49 328 1.0 2.0 0.00 0.00 0.00 62 1033.3
20240423185424 50 314 1.0 2.0 0.00 0.00 0.00 61 1033.1
20240423184524 50 326 1.0 2.0 0.00 0.00 0.00 60 1033.0
20240423183624 51 319 0.0 2.0 0.00 0.00 0.00 58 1033.0
20240423182724 52 292 0.0 2.0 0.00 0.00 0.00 56 1033.1
20240423181824 53 303 1.0 4.0 0.00 0.00 0.00 54 1032.9
20240423180924 54 323 3.0 4.0 0.00 0.00 0.00 51 1032.9
20240423180024 55 331 3.0 4.0 0.00 0.00 0.00 50 1032.8
20240423175124 56 325 3.0 4.0 0.00 0.00 0.00 48 1032.8
20240423174224 55 330 3.0 4.0 0.00 0.00 0.00 50 1032.6
20240423173324 53 343 2.0 4.0 0.00 0.00 0.00 54 1032.5
20240423172424 54 334 2.0 4.0 0.00 0.00 0.00 51 1032.2
20240423171524 55 324 2.0 4.0 0.00 0.00 0.00 49 1032.4
20240423170624 57 326 4.0 7.0 0.00 0.00 0.00 46 1032.3
20240423165724 56 314 3.0 4.0 0.00 0.00 0.00 47 1032.5
20240423164824 56 331 2.0 4.0 0.00 0.00 0.00 46 1032.3
20240423163924 56 320 2.0 6.0 0.00 0.00 0.00 46 1032.2
20240423163024 56 297 2.0 4.0 0.00 0.00 0.00 48 1032.0
20240423162124 56 297 2.0 6.0 0.00 0.00 0.00 47 1031.9
20240423161224 57 308 5.0 6.0 0.00 0.00 0.00 45 1031.8
20240423160324 58 320 6.0 9.0 0.00 0.00 0.00 43 1031.8
20240423155424 58 329 6.0 9.0 0.00 0.00 0.00 43 1031.9
20240423154524 57 333 5.0 7.0 0.00 0.00 0.00 44 1031.8
20240423153624 57 328 4.0 7.0 0.00 0.00 0.00 44 1031.8
20240423152724 56 319 4.0 6.0 0.00 0.00 0.00 45 1031.8
20240423151824 57 326 4.0 6.0 0.00 0.00 0.00 45 1031.9
20240423150924 58 327 5.0 6.0 0.00 0.00 0.00 42 1031.8
20240423150024 57 334 4.0 6.0 0.00 0.00 0.00 45 1031.9
20240423145124 58 303 4.0 7.0 0.00 0.00 0.00 43 1031.9
20240423144224 57 292 2.0 4.0 0.00 0.00 0.00 46 1031.9
20240423143324 56 290 2.0 4.0 0.00 0.00 0.00 49 1031.8
20240423142424 57 300 3.0 6.0 0.00 0.00 0.00 49 1031.9
20240423141524 57 278 4.0 8.0 0.00 0.00 0.00 48 1031.8
20240423140623 58 309 5.0 8.0 0.00 0.00 0.00 48 1031.8
20240423135724 58 332 7.0 11.0 0.00 0.00 0.00 47 1031.6
20240423134823 58 343 8.0 11.0 0.00 0.00 0.00 47 1031.4
20240423133923 58 320 9.0 13.0 0.00 0.00 0.00 47 1031.2
20240423133023 58 321 9.0 13.0 0.00 0.00 0.00 47 1031.4
20240423132124 58 337 9.0 13.0 0.00 0.00 0.00 47 1031.3
20240423131223 59 305 9.0 13.0 0.00 0.00 0.00 45 1031.5
20240423130323 58 313 8.0 11.0 0.00 0.00 0.00 46 1031.6
20240423125423 58 320 8.0 13.0 0.00 0.00 0.00 46 1031.6
20240423124523 59 337 9.0 13.0 0.00 0.00 0.00 45 1031.4
20240423123623 59 352 7.0 8.0 0.00 0.00 0.00 45 1031.5
20240423122723 59 343 8.0 9.0 0.00 0.00 0.00 46 1031.3
20240423121823 59 308 6.0 8.0 0.00 0.00 0.00 45 1031.1
20240423120923 59 326 4.0 6.0 0.00 0.00 0.00 46 1031.2
20240423120023 59 307 4.0 6.0 0.00 0.00 0.00 47 1031.5
20240423115123 58 304 3.0 6.0 0.00 0.00 0.00 49 1031.2
20240423114223 58 295 5.0 9.0 0.00 0.00 0.00 49 1031.2
20240423113323 59 311 5.0 7.0 0.00 0.00 0.00 48 1031.3
20240423112423 59 313 6.0 11.0 0.00 0.00 0.00 48 1031.3
20240423111523 59 332 6.0 9.0 0.00 0.00 0.00 48 1031.2
20240423110623 59 323 7.0 9.0 0.00 0.00 0.00 50 1031.4
20240423105723 59 335 9.0 13.0 0.00 0.00 0.00 50 1031.6
20240423104823 59 333 8.0 11.0 0.00 0.00 0.00 51 1031.6
20240423103923 59 317 7.0 11.0 0.00 0.00 0.00 51 1031.8
20240423103023 58 324 8.0 13.0 0.00 0.00 0.00 52 1031.8
20240423102123 58 320 8.0 13.0 0.00 0.00 0.00 53 1031.8
20240423101223 58 305 8.0 9.0 0.00 0.00 0.00 53 1032.0
20240423100323 58 33 10.0 18.0 0.00 0.00 0.00 54 1031.8
20240423095423 59 338 10.0 15.0 0.00 0.00 0.00 54 1031.8
20240423094523 59 330 8.0 11.0 0.00 0.00 0.00 54 1031.6
20240423093623 59 332 11.0 15.0 0.00 0.00 0.00 54 1031.6
20240423092723 59 326 11.0 16.0 0.00 0.00 0.00 54 1031.8
20240423091823 59 318 11.0 16.0 0.00 0.00 0.00 53 1032.0
20240423090923 59 329 10.0 11.0 0.00 0.00 0.00 53 1031.9
20240423090023 60 311 10.0 13.0 0.00 0.00 0.00 52 1032.1
20240423085123 59 331 10.0 13.0 0.00 0.00 0.00 53 1032.1
20240423084223 59 297 9.0 11.0 0.00 0.00 0.00 54 1032.2
20240423083323 60 307 9.0 11.0 0.00 0.00 0.00 54 1032.1
20240423082423 60 321 9.0 13.0 0.00 0.00 0.00 54 1032.1
20240423081523 60 321 9.0 13.0 0.00 0.00 0.00 54 1032.2
20240423080623 60 305 9.0 14.0 0.00 0.00 0.00 53 1032.4
20240423075723 60 344 8.0 14.0 0.00 0.00 0.00 54 1032.8
20240423074823 60 324 8.0 11.0 0.00 0.00 0.00 55 1032.6
20240423073923 60 307 8.0 11.0 0.00 0.00 0.00 54 1032.6
20240423073023 59 331 8.0 11.0 0.00 0.00 0.00 56 1032.9
20240423072123 59 335 8.0 9.0 0.00 0.00 0.00 55 1032.8
20240423071223 59 313 7.0 11.0 0.00 0.00 0.00 55 1032.9
20240423070323 59 312 6.0 11.0 0.00 0.00 0.00 55 1032.9
20240423065423 56 330 3.0 4.0 0.00 0.00 0.00 61 1033.1
20240423064523 55 330 2.0 2.0 0.00 0.00 0.00 64 1033.3
20240423063623 55 313 2.0 2.0 0.00 0.00 0.00 63 1033.3
20240423062723 54 22 1.0 4.0 0.00 0.00 0.00 63 1033.3
20240423061823 54 57 2.0 2.0 0.00 0.00 0.00 62 1033.3
20240423060923 54 36 2.0 4.0 0.00 0.00 0.00 60 1033.3
20240423060023 55 27 2.0 4.0 0.00 0.00 0.00 57 1033.5
20240423055123 56 48 2.0 4.0 0.00 0.00 0.00 55 1033.4
20240423054223 56 47 2.0 4.0 0.00 0.00 0.00 58 1033.8
20240423053323 57 48 4.0 6.0 0.00 0.00 0.00 60 1033.6